Time;durP1;ratioP1;P1;durP2;ratioP2;P2;SDS_P1;SDS_P2;PMS_P1;PMS_P2;Temp;Humidity;BMP_temperature;BMP_pressure;BME280_temperature;BME280_humidity;BME280_pressure;Samples;Min_cycle;Max_cycle;Signal;HPM_P1;HPM_P2
2023/12/12 00:01:03;;;;;;;;;;;;;;;-2.93;80.99;100812.17;106545;1268;97747;-67
2023/12/12 00:03:39;;;;;;;;;;;;;;;-2.84;81.63;100809.24;106599;1268;97755;-69
2023/12/12 00:06:08;;;;;;;;;;;;;;;-2.77;81.57;100803.61;106526;1267;112179;-70
2023/12/12 00:08:36;;;;;;;;;;;;;;;-2.73;81.47;100810.82;106556;1268;108666;-69
2023/12/12 00:11:05;;;;;;;;;;;;;;;-2.73;81.02;100811.55;106507;1267;107807;-69
2023/12/12 00:13:34;;;;;;;;;;;;;;;-2.73;81.08;100810.83;106585;1267;97852;-69
2023/12/12 00:16:02;;;;;;;;;;;;;;;-2.67;81.26;100801.00;106471;1268;97878;-67
2023/12/12 00:18:32;;;;;;;;;;;;;;;-2.61;80.88;100791.85;106353;1268;111299;-67
2023/12/12 00:21:01;;;;;;;;;;;;;;;-2.58;80.83;100789.44;106548;1268;109249;-67
2023/12/12 00:23:30;;;;;;;;;;;;;;;-2.54;80.87;100793.02;106526;1268;108546;-67
2023/12/12 00:25:58;;;;;;;;;;;;;;;-2.52;80.70;100799.98;106336;1268;97940;-67
2023/12/12 00:28:26;;;;;;;;;;;;;;;-2.50;80.68;100798.34;106465;1268;99518;-68
2023/12/12 00:30:55;;;;;;;;;;;;;;;-2.53;80.25;100803.68;106458;1268;111968;-66
2023/12/12 00:33:24;;;;;;;;;;;;;;;-2.65;79.45;100793.55;106466;1268;109755;-68
2023/12/12 00:35:52;;;;;;;;;;;;;;;-2.70;80.01;100786.33;106426;1268;108695;-68
2023/12/12 00:38:20;;;;;;;;;;;;;;;-2.66;80.34;100789.90;106353;1268;97951;-68
2023/12/12 00:40:52;;;;;;;;;;;;;;;-2.61;80.96;100789.56;106491;1273;97860;-70
2023/12/12 00:43:21;;;;;;;;;;;;;;;-2.58;80.48;100791.91;106564;1268;111077;-69
2023/12/12 00:45:50;;;;;;;;;;;;;;;-2.54;80.72;100787.22;106565;1267;109331;-70
2023/12/12 00:48:18;;;;;;;;;;;;;;;-2.49;80.61;100784.08;106517;1268;108363;-69
2023/12/12 00:50:48;;;;;;;;;;;;;;;-2.45;80.68;100783.75;106505;1269;97842;-68
2023/12/12 00:53:17;;;;;;;;;;;;;;;-2.43;80.95;100778.40;106569;1268;97795;-69
2023/12/12 00:55:45;;;;;;;;;;;;;;;-2.42;80.75;100777.48;106555;1267;112292;-67
2023/12/12 00:58:13;;;;;;;;;;;;;;;-2.50;80.07;100772.66;106592;1267;110539;-68
2023/12/12 01:00:41;;;;;;;;;;;;;;;-2.58;80.05;100770.67;106546;1267;109457;-69
2023/12/12 01:03:09;;;;;;;;;;;;;;;-2.68;79.09;100771.01;106595;1267;97938;-67
2023/12/12 01:05:37;;;;;;;;;;;;;;;-2.75;79.37;100769.83;106622;1267;97864;-67
2023/12/12 01:08:05;;;;;;;;;;;;;;;-2.80;79.24;100768.42;106619;1267;111997;-66
2023/12/12 01:10:33;;;;;;;;;;;;;;;-2.89;79.19;100764.66;106571;1267;109250;-68
2023/12/12 01:13:04;;;;;;;;;;;;;;;-2.98;79.10;100756.52;106477;1268;108239;-67
2023/12/12 01:15:32;;;;;;;;;;;;;;;-3.04;78.83;100753.73;106537;1267;97852;-68
2023/12/12 01:18:00;;;;;;;;;;;;;;;-3.08;79.21;100745.11;106578;1267;97846;-68
2023/12/12 01:20:29;;;;;;;;;;;;;;;-3.13;79.01;100744.57;106485;1268;111065;-68
2023/12/12 01:22:57;;;;;;;;;;;;;;;-3.19;79.23;100737.54;106508;1268;109779;-70
2023/12/12 01:25:25;;;;;;;;;;;;;;;-3.24;79.00;100739.46;106563;1267;108162;-68
2023/12/12 01:27:53;;;;;;;;;;;;;;;-3.30;79.18;100732.98;106587;1267;98480;-69
2023/12/12 01:30:22;;;;;;;;;;;;;;;-3.33;79.35;100734.31;106579;1267;97746;-72
2023/12/12 01:32:50;;;;;;;;;;;;;;;-3.36;79.27;100731.23;106610;1268;111137;-68
2023/12/12 01:35:18;;;;;;;;;;;;;;;-3.39;79.40;100729.93;106585;1267;109542;-68
2023/12/12 01:37:46;;;;;;;;;;;;;;;-3.46;79.06;100735.74;106600;1267;106066;-66
2023/12/12 01:40:15;;;;;;;;;;;;;;;-3.55;78.99;100738.83;106568;1267;97932;-68
2023/12/12 01:42:43;;;;;;;;;;;;;;;-3.62;78.90;100745.71;106619;1267;97853;-66
2023/12/12 01:45:12;;;;;;;;;;;;;;;-3.67;79.07;100745.86;106626;1267;112349;-67
2023/12/12 01:47:40;;;;;;;;;;;;;;;-3.69;78.77;100738.73;106607;1267;109364;-67
2023/12/12 01:50:08;;;;;;;;;;;;;;;-3.71;79.23;100728.44;106545;1269;108216;-67
2023/12/12 01:52:37;;;;;;;;;;;;;;;-3.71;79.03;100725.66;106542;1267;97951;-69
2023/12/12 01:55:06;;;;;;;;;;;;;;;-3.74;79.05;100723.10;106645;1267;97884;-70
2023/12/12 01:57:34;;;;;;;;;;;;;;;-3.75;79.32;100709.11;106594;1267;110412;-68
2023/12/12 02:00:02;;;;;;;;;;;;;;;-3.77;79.31;100703.38;106547;1267;109311;-68
2023/12/12 02:02:39;;;;;;;;;;;;;;;-3.78;78.95;100699.57;106616;1268;108024;-67
2023/12/12 02:05:08;;;;;;;;;;;;;;;-3.80;79.20;100699.45;106614;1267;97940;-69
2023/12/12 02:07:37;;;;;;;;;;;;;;;-3.83;79.36;100694.45;106607;1270;97715;-70
2023/12/12 02:10:06;;;;;;;;;;;;;;;-3.86;79.62;100677.02;106546;1268;111224;-67
2023/12/12 02:12:34;;;;;;;;;;;;;;;-3.88;79.38;100678.33;106542;1267;108972;-67
2023/12/12 02:15:02;;;;;;;;;;;;;;;-3.91;79.54;100678.59;106584;1269;108178;-65
2023/12/12 02:17:31;;;;;;;;;;;;;;;-3.96;79.42;100684.51;106619;1267;98052;-67
2023/12/12 02:19:59;;;;;;;;;;;;;;;-3.97;79.28;100687.52;106546;1268;97969;-66
2023/12/12 02:22:28;;;;;;;;;;;;;;;-3.98;79.56;100691.39;106545;1268;110870;-67
2023/12/12 02:24:56;;;;;;;;;;;;;;;-3.98;79.51;100697.52;106561;1268;109166;-66
2023/12/12 02:27:24;;;;;;;;;;;;;;;-3.98;79.36;100702.23;106589;1267;108454;-67
2023/12/12 02:29:53;;;;;;;;;;;;;;;-3.98;79.95;100697.17;106522;1268;97842;-68
2023/12/12 02:32:21;;;;;;;;;;;;;;;-3.99;79.71;100700.38;106632;1269;97731;-69
2023/12/12 02:34:49;;;;;;;;;;;;;;;-4.01;79.64;100697.98;106598;1267;111784;-69
2023/12/12 02:37:17;;;;;;;;;;;;;;;-4.02;79.98;100692.22;106570;1267;109027;-69
2023/12/12 02:39:45;;;;;;;;;;;;;;;-4.03;79.71;100690.50;106536;1268;107568;-68
2023/12/12 02:42:13;;;;;;;;;;;;;;;-4.03;79.74;100692.09;106553;1267;98022;-69
2023/12/12 02:44:42;;;;;;;;;;;;;;;-4.03;79.99;100699.79;106605;1267;97964;-68
2023/12/12 02:47:10;;;;;;;;;;;;;;;-4.04;79.58;100695.09;106563;1267;110915;-68
2023/12/12 02:49:38;;;;;;;;;;;;;;;-4.03;79.99;100696.10;106502;1268;109819;-67
2023/12/12 02:52:06;;;;;;;;;;;;;;;-4.03;80.04;100703.11;106548;1267;108159;-66
2023/12/12 02:54:34;;;;;;;;;;;;;;;-4.04;79.71;100697.89;106548;1267;98147;-68
2023/12/12 02:57:03;;;;;;;;;;;;;;;-4.05;79.62;100695.80;106590;1269;97920;-67
2023/12/12 02:59:31;;;;;;;;;;;;;;;-4.06;79.98;100696.54;106539;1267;111115;-68
2023/12/12 03:02:00;;;;;;;;;;;;;;;-4.06;79.64;100698.64;106533;1267;109112;-68
2023/12/12 03:04:28;;;;;;;;;;;;;;;-4.06;79.96;100704.08;106557;1268;108379;-67
2023/12/12 03:06:56;;;;;;;;;;;;;;;-4.07;79.99;100709.01;106565;1267;97894;-67
2023/12/12 03:09:25;;;;;;;;;;;;;;;-4.06;79.97;100702.84;106543;1269;97882;-69
2023/12/12 03:11:55;;;;;;;;;;;;;;;-4.06;80.18;100701.98;106514;1271;111717;-70
2023/12/12 03:14:26;;;;;;;;;;;;;;;-4.08;79.95;100704.11;106487;1267;109205;-69
2023/12/12 03:16:54;;;;;;;;;;;;;;;-4.09;79.69;100712.05;106583;1266;107780;-69
2023/12/12 03:19:23;;;;;;;;;;;;;;;-4.09;80.09;100714.48;106544;1267;97036;-70
2023/12/12 03:21:51;;;;;;;;;;;;;;;-4.09;79.80;100712.73;106565;1270;97855;-72
2023/12/12 03:24:20;;;;;;;;;;;;;;;-4.11;79.94;100714.36;106561;1268;110014;-70
2023/12/12 03:26:48;;;;;;;;;;;;;;;-4.11;79.77;100709.11;106578;1270;108111;-68
2023/12/12 03:29:16;;;;;;;;;;;;;;;-4.11;80.19;100703.67;106583;1267;108546;-68
2023/12/12 03:31:44;;;;;;;;;;;;;;;-4.10;80.29;100699.63;106562;1269;97964;-67
2023/12/12 03:34:12;;;;;;;;;;;;;;;-4.11;80.17;100695.95;106622;1267;97884;-67
2023/12/12 03:36:41;;;;;;;;;;;;;;;-4.11;80.16;100699.65;106624;1268;111411;-67
2023/12/12 03:39:10;;;;;;;;;;;;;;;-4.10;80.24;100708.91;106609;1268;109726;-67
2023/12/12 03:41:38;;;;;;;;;;;;;;;-4.06;80.43;100713.88;106506;1270;108494;-67
2023/12/12 03:44:06;;;;;;;;;;;;;;;-4.01;80.55;100721.79;106594;1269;97898;-67
2023/12/12 03:46:34;;;;;;;;;;;;;;;-3.95;80.47;100732.66;106583;1268;97880;-67
2023/12/12 03:49:03;;;;;;;;;;;;;;;-3.88;80.84;100732.11;106528;1267;110820;-70
2023/12/12 03:51:31;;;;;;;;;;;;;;;-3.81;81.31;100728.05;106472;1267;110132;-68
2023/12/12 03:53:59;;;;;;;;;;;;;;;-3.75;81.05;100728.92;106589;1268;108276;-68
2023/12/12 03:56:27;;;;;;;;;;;;;;;-3.67;81.59;100724.65;106532;1267;97952;-69
2023/12/12 03:58:58;;;;;;;;;;;;;;;-3.59;81.48;100724.23;106469;1268;97830;-70
2023/12/12 04:01:26;;;;;;;;;;;;;;;-3.54;81.50;100731.27;106469;1268;111520;-70
2023/12/12 04:03:55;;;;;;;;;;;;;;;-3.46;81.82;100727.86;106560;1267;109402;-68
2023/12/12 04:06:24;;;;;;;;;;;;;;;-3.40;81.62;100728.04;106533;1267;108370;-67
2023/12/12 04:08:52;;;;;;;;;;;;;;;-3.35;81.95;100721.73;106543;1267;98029;-67
2023/12/12 04:11:20;;;;;;;;;;;;;;;-3.31;81.76;100722.14;106516;1267;98037;-65
2023/12/12 04:13:48;;;;;;;;;;;;;;;-3.27;82.10;100723.06;106546;1268;110881;-67
2023/12/12 04:16:16;;;;;;;;;;;;;;;-3.22;81.86;100727.66;106523;1267;109792;-72
2023/12/12 04:18:44;;;;;;;;;;;;;;;-3.17;81.89;100730.83;106517;1268;107883;-69
2023/12/12 04:21:13;;;;;;;;;;;;;;;-3.10;82.32;100740.95;106599;1268;97875;-66
2023/12/12 04:23:42;;;;;;;;;;;;;;;-3.03;81.93;100733.73;106592;1267;97739;-67
2023/12/12 04:26:12;;;;;;;;;;;;;;;-3.03;81.55;100735.47;106504;1268;112193;-70
2023/12/12 04:28:41;;;;;;;;;;;;;;;-3.02;81.86;100729.80;106564;1267;108970;-69
2023/12/12 04:31:13;;;;;;;;;;;;;;;-3.01;81.16;100729.08;106483;1268;107900;-68
2023/12/12 04:33:41;;;;;;;;;;;;;;;-3.02;81.56;100722.98;106502;1268;97874;-68
2023/12/12 04:36:14;;;;;;;;;;;;;;;-3.06;81.52;100723.64;106604;1269;97968;-70
2023/12/12 04:38:43;;;;;;;;;;;;;;;-3.11;81.62;100726.45;106540;1268;111229;-69
2023/12/12 04:41:11;;;;;;;;;;;;;;;-3.13;81.59;100722.27;106579;1267;109951;-69
2023/12/12 04:43:40;;;;;;;;;;;;;;;-3.12;81.88;100726.11;106574;1267;107786;-67
2023/12/12 04:46:09;;;;;;;;;;;;;;;-3.09;81.87;100732.16;106501;1268;97860;-68
2023/12/12 04:48:37;;;;;;;;;;;;;;;-3.03;82.35;100742.45;106522;1268;98229;-68
2023/12/12 04:51:06;;;;;;;;;;;;;;;-2.95;82.49;100736.10;106537;1268;110999;-68
2023/12/12 04:53:34;;;;;;;;;;;;;;;-2.91;82.32;100723.30;106540;1268;110046;-67
2023/12/12 04:56:03;;;;;;;;;;;;;;;-2.83;82.31;100718.48;106559;1269;108634;-69
2023/12/12 04:58:31;;;;;;;;;;;;;;;-2.77;82.34;100722.48;106533;1268;98446;-67
2023/12/12 05:00:59;;;;;;;;;;;;;;;-2.71;82.37;100722.28;106590;1269;97906;-69
2023/12/12 05:03:28;;;;;;;;;;;;;;;-2.67;82.36;100721.61;106583;1267;109923;-69
2023/12/12 05:05:58;;;;;;;;;;;;;;;-2.63;82.49;100726.92;106596;1267;109745;-69
2023/12/12 05:08:26;;;;;;;;;;;;;;;-2.63;82.08;100723.27;106589;1268;107961;-70
2023/12/12 05:10:55;;;;;;;;;;;;;;;-2.68;81.97;100722.72;106392;1275;97975;-69
2023/12/12 05:13:23;;;;;;;;;;;;;;;-2.75;81.39;100724.01;106537;1268;97872;-68
2023/12/12 05:15:51;;;;;;;;;;;;;;;-2.81;81.31;100722.64;106437;1269;111854;-72
2023/12/12 05:18:20;;;;;;;;;;;;;;;-2.89;80.82;100729.56;106566;1268;109497;-71
2023/12/12 05:20:48;;;;;;;;;;;;;;;-2.96;80.94;100723.66;106562;1269;108275;-69
2023/12/12 05:23:16;;;;;;;;;;;;;;;-3.06;80.76;100721.34;106594;1268;97893;-67
2023/12/12 05:25:45;;;;;;;;;;;;;;;-3.14;80.38;100725.27;106564;1269;97964;-68
2023/12/12 05:28:16;;;;;;;;;;;;;;;-3.20;80.73;100728.80;106481;1268;110183;-67
2023/12/12 05:30:45;;;;;;;;;;;;;;;-3.24;80.69;100724.91;106570;1268;109461;-67
2023/12/12 05:33:14;;;;;;;;;;;;;;;-3.27;80.51;100715.19;106503;1271;108570;-67
2023/12/12 05:35:42;;;;;;;;;;;;;;;-3.31;80.43;100706.52;106596;1270;97885;-66
2023/12/12 05:38:10;;;;;;;;;;;;;;;-3.33;80.52;100710.97;106538;1268;97864;-69
2023/12/12 05:40:39;;;;;;;;;;;;;;;-3.34;80.69;100717.17;106634;1268;111577;-68
2023/12/12 05:43:09;;;;;;;;;;;;;;;-3.37;80.45;100718.13;106548;1268;108822;-71
2023/12/12 05:45:38;;;;;;;;;;;;;;;-3.39;80.66;100731.16;106590;1267;107597;-69
2023/12/12 05:48:07;;;;;;;;;;;;;;;-3.42;80.43;100740.90;106533;1273;98022;-69
2023/12/12 05:50:36;;;;;;;;;;;;;;;-3.45;80.61;100741.34;106485;1268;97872;-68
2023/12/12 05:53:06;;;;;;;;;;;;;;;-3.46;80.72;100744.87;106619;1267;111308;-69
2023/12/12 05:55:34;;;;;;;;;;;;;;;-3.45;80.75;100738.02;106565;1267;109803;-69
2023/12/12 05:58:02;;;;;;;;;;;;;;;-3.44;81.10;100735.52;106500;1272;108170;-69
2023/12/12 06:00:30;;;;;;;;;;;;;;;-3.42;80.58;100728.45;106600;1268;97865;-68
2023/12/12 06:02:59;;;;;;;;;;;;;;;-3.40;80.96;100717.52;106588;1269;97871;-67
2023/12/12 06:05:27;;;;;;;;;;;;;;;-3.38;81.02;100720.45;106608;1267;111732;-67
2023/12/12 06:07:56;;;;;;;;;;;;;;;-3.35;81.15;100727.55;106605;1268;109728;-67
2023/12/12 06:10:24;;;;;;;;;;;;;;;-3.33;81.01;100729.04;106521;1269;108307;-67
2023/12/12 06:12:53;;;;;;;;;;;;;;;-3.30;81.00;100726.33;106567;1268;97946;-68
2023/12/12 06:15:21;;;;;;;;;;;;;;;-3.26;81.17;100734.80;106599;1267;98008;-66
2023/12/12 06:17:49;;;;;;;;;;;;;;;-3.24;81.28;100736.29;106550;1267;110934;-68
2023/12/12 06:20:18;;;;;;;;;;;;;;;-3.20;81.25;100736.17;106582;1267;109442;-69
2023/12/12 06:22:46;;;;;;;;;;;;;;;-3.17;81.24;100740.63;106585;1269;107863;-67
2023/12/12 06:25:15;;;;;;;;;;;;;;;-3.13;81.26;100744.73;106578;1267;99468;-68
2023/12/12 06:27:43;;;;;;;;;;;;;;;-3.09;81.20;100753.73;106515;1269;97939;-68
2023/12/12 06:30:11;;;;;;;;;;;;;;;-3.06;80.92;100752.23;106521;1271;111598;-69
2023/12/12 06:32:40;;;;;;;;;;;;;;;-3.03;80.87;100751.23;106544;1269;109560;-68
2023/12/12 06:35:08;;;;;;;;;;;;;;;-3.00;81.27;100753.95;106557;1267;107283;-69
2023/12/12 06:37:36;;;;;;;;;;;;;;;-2.97;81.12;100744.92;106565;1267;97854;-67
2023/12/12 06:40:05;;;;;;;;;;;;;;;-2.93;81.45;100737.94;106577;1267;97860;-67
2023/12/12 06:42:35;;;;;;;;;;;;;;;-2.90;81.11;100742.39;106603;1268;112111;-70
2023/12/12 06:45:04;;;;;;;;;;;;;;;-2.85;81.60;100747.31;106601;1267;109137;-67
2023/12/12 06:47:32;;;;;;;;;;;;;;;-2.81;81.44;100748.61;106563;1269;109517;-67
2023/12/12 06:50:00;;;;;;;;;;;;;;;-2.78;81.68;100755.54;106533;1269;97848;-66
2023/12/12 06:52:28;;;;;;;;;;;;;;;-2.74;81.57;100757.66;106584;1267;97881;-65
2023/12/12 06:54:57;;;;;;;;;;;;;;;-2.71;81.47;100760.91;106541;1269;111509;-67
2023/12/12 06:57:25;;;;;;;;;;;;;;;-2.68;81.41;100755.89;106633;1268;108769;-69
2023/12/12 06:59:54;;;;;;;;;;;;;;;-2.65;81.48;100750.35;106470;1268;108860;-68
2023/12/12 07:02:22;;;;;;;;;;;;;;;-2.62;81.51;100748.66;106558;1267;98523;-68
2023/12/12 07:04:50;;;;;;;;;;;;;;;-2.58;81.72;100757.14;106624;1269;98590;-69
2023/12/12 07:07:19;;;;;;;;;;;;;;;-2.54;81.80;100767.00;106609;1271;111770;-70
2023/12/12 07:09:48;;;;;;;;;;;;;;;-2.49;81.85;100762.63;106569;1271;109615;-69
2023/12/12 07:12:27;;;;;;;;;;;;;;;-2.45;81.87;100755.81;106553;1267;108332;-69
2023/12/12 07:14:55;;;;;;;;;;;;;;;-2.40;82.02;100754.59;106504;1272;97964;-67
2023/12/12 07:17:24;;;;;;;;;;;;;;;-2.36;81.67;100752.36;106620;1269;97850;-68
2023/12/12 07:19:52;;;;;;;;;;;;;;;-2.33;81.64;100754.38;106572;1270;111639;-68
2023/12/12 07:22:21;;;;;;;;;;;;;;;-2.30;81.95;100756.00;106625;1268;109483;-67
2023/12/12 07:24:49;;;;;;;;;;;;;;;-2.27;82.03;100762.58;106584;1267;108126;-66
2023/12/12 07:27:17;;;;;;;;;;;;;;;-2.24;82.17;100770.71;106599;1267;97856;-66
2023/12/12 07:29:45;;;;;;;;;;;;;;;-2.23;82.11;100773.30;106523;1268;97964;-66
2023/12/12 07:32:14;;;;;;;;;;;;;;;-2.20;82.14;100764.62;106539;1268;112070;-69
2023/12/12 07:34:42;;;;;;;;;;;;;;;-2.17;82.34;100758.36;106525;1268;109265;-69
2023/12/12 07:37:10;;;;;;;;;;;;;;;-2.13;82.25;100751.55;106580;1269;108096;-69
2023/12/12 07:39:39;;;;;;;;;;;;;;;-2.10;82.15;100745.98;106561;1268;97858;-71
2023/12/12 07:42:07;;;;;;;;;;;;;;;-2.05;82.41;100746.35;106587;1267;97784;-69
2023/12/12 07:44:35;;;;;;;;;;;;;;;-1.99;82.53;100750.34;106600;1267;110562;-68
2023/12/12 07:47:03;;;;;;;;;;;;;;;-1.93;82.23;100753.61;106601;1267;109233;-69
2023/12/12 07:49:32;;;;;;;;;;;;;;;-1.84;82.60;100753.83;106547;1268;108251;-69
2023/12/12 07:52:00;;;;;;;;;;;;;;;-1.75;82.46;100756.12;106548;1269;97875;-67
2023/12/12 07:54:28;;;;;;;;;;;;;;;-1.63;82.60;100755.14;106610;1269;97854;-68
2023/12/12 07:56:56;;;;;;;;;;;;;;;-1.50;82.79;100757.63;106607;1268;111764;-67
2023/12/12 07:59:25;;;;;;;;;;;;;;;-1.37;82.83;100758.37;106553;1268;109854;-65
2023/12/12 08:01:53;;;;;;;;;;;;;;;-1.21;82.86;100761.95;106491;1268;108286;-68
2023/12/12 08:04:21;;;;;;;;;;;;;;;-0.96;82.83;100754.30;106609;1271;97862;-68
2023/12/12 08:06:50;;;;;;;;;;;;;;;-0.69;82.81;100754.09;106624;1268;97822;-68
2023/12/12 08:09:18;;;;;;;;;;;;;;;-0.39;83.13;100761.97;106587;1267;112395;-66
2023/12/12 08:11:46;;;;;;;;;;;;;;;0.02;82.96;100751.00;106505;1269;109248;-69
2023/12/12 08:14:14;;;;;;;;;;;;;;;0.53;82.51;100742.31;106533;1267;108312;-69
2023/12/12 08:16:43;;;;;;;;;;;;;;;0.95;82.30;100744.20;106583;1269;97888;-68
2023/12/12 08:19:13;;;;;;;;;;;;;;;1.53;81.77;100736.57;106623;1267;97893;-68
2023/12/12 08:21:41;;;;;;;;;;;;;;;1.93;81.39;100741.21;106581;1269;111836;-68
2023/12/12 08:24:09;;;;;;;;;;;;;;;1.92;81.11;100735.12;106584;1269;109464;-68
2023/12/12 08:26:46;;;;;;;;;;;;;;;1.87;81.32;100728.44;106494;1268;107893;-69
2023/12/12 08:29:14;;;;;;;;;;;;;;;1.90;81.47;100732.73;106448;1274;98031;-66
2023/12/12 08:31:42;;;;;;;;;;;;;;;1.95;81.60;100734.42;106545;1269;97908;-67
2023/12/12 08:34:11;;;;;;;;;;;;;;;1.96;81.74;100734.86;106532;1270;111853;-66
2023/12/12 08:36:40;;;;;;;;;;;;;;;1.96;81.57;100729.05;106552;1270;109874;-66
2023/12/12 08:39:08;;;;;;;;;;;;;;;1.89;81.48;100729.59;106502;1268;107959;-66
2023/12/12 08:41:37;;;;;;;;;;;;;;;1.80;81.51;100726.32;106505;1269;97966;-65
2023/12/12 08:44:05;;;;;;;;;;;;;;;1.75;81.51;100718.82;106606;1267;97753;-65
2023/12/12 08:46:34;;;;;;;;;;;;;;;1.66;81.43;100711.88;106581;1267;112393;-69
2023/12/12 08:49:03;;;;;;;;;;;;;;;1.61;81.40;100698.54;106560;1272;108803;-68
2023/12/12 08:51:33;;;;;;;;;;;;;;;1.59;81.57;100697.38;106538;1267;108617;-67
2023/12/12 08:54:02;;;;;;;;;;;;;;;1.62;82.02;100704.09;106561;1267;97723;-68
2023/12/12 08:56:30;;;;;;;;;;;;;;;1.69;82.42;100698.80;106576;1272;98014;-70
2023/12/12 08:58:59;;;;;;;;;;;;;;;1.78;82.40;100704.15;106547;1269;111903;-67
2023/12/12 09:01:27;;;;;;;;;;;;;;;1.83;82.06;100698.23;106482;1268;109361;-67
2023/12/12 09:03:56;;;;;;;;;;;;;;;1.86;82.01;100689.26;106510;1268;107352;-68
2023/12/12 09:06:25;;;;;;;;;;;;;;;1.89;81.69;100693.52;106521;1268;97859;-69
2023/12/12 09:08:53;;;;;;;;;;;;;;;1.96;81.99;100693.35;106556;1269;97763;-67
2023/12/12 09:11:21;;;;;;;;;;;;;;;2.07;82.09;100702.81;106500;1267;112345;-66
2023/12/12 09:13:49;;;;;;;;;;;;;;;2.14;81.77;100703.47;106516;1269;110065;-68
2023/12/12 09:16:17;;;;;;;;;;;;;;;2.17;81.38;100702.44;106522;1267;107388;-66
2023/12/12 09:18:46;;;;;;;;;;;;;;;2.23;80.95;100713.61;106578;1269;97916;-69
2023/12/12 09:21:14;;;;;;;;;;;;;;;2.26;80.84;100714.16;106519;1269;97851;-69
2023/12/12 09:23:42;;;;;;;;;;;;;;;2.31;80.59;100708.55;106488;1273;111504;-69
2023/12/12 09:26:14;;;;;;;;;;;;;;;2.37;80.81;100700.31;106457;1273;109895;-69
2023/12/12 09:28:43;;;;;;;;;;;;;;;2.50;81.18;100695.88;106528;1273;107726;-69
2023/12/12 09:31:11;;;;;;;;;;;;;;;2.64;81.35;100700.38;106469;1272;97945;-68
2023/12/12 09:33:39;;;;;;;;;;;;;;;2.80;80.96;100694.18;106602;1267;97903;-69
2023/12/12 09:36:09;;;;;;;;;;;;;;;2.91;80.72;100687.36;106594;1269;111901;-66
2023/12/12 09:38:37;;;;;;;;;;;;;;;3.06;81.05;100697.63;106641;1269;109133;-66
2023/12/12 09:41:08;;;;;;;;;;;;;;;3.22;80.77;100701.16;106548;1267;108808;-65
2023/12/12 09:43:38;;;;;;;;;;;;;;;3.30;80.94;100699.08;106517;1270;97771;-66
2023/12/12 09:46:08;;;;;;;;;;;;;;;3.37;79.88;100695.66;106562;1267;97837;-67
2023/12/12 09:48:36;;;;;;;;;;;;;;;3.28;79.27;100683.59;106579;1269;110605;-68
2023/12/12 09:51:06;;;;;;;;;;;;;;;3.28;79.49;100678.59;106539;1271;109126;-69
2023/12/12 09:53:35;;;;;;;;;;;;;;;3.34;79.14;100681.83;106524;1269;107567;-68
2023/12/12 09:56:05;;;;;;;;;;;;;;;3.40;78.68;100691.05;106576;1272;97864;-68
2023/12/12 09:58:33;;;;;;;;;;;;;;;3.52;78.53;100690.15;106556;1267;97853;-69
2023/12/12 10:01:02;;;;;;;;;;;;;;;3.57;77.74;100689.50;106556;1271;111474;-68
2023/12/12 10:03:32;;;;;;;;;;;;;;;3.62;77.75;100690.42;106551;1268;108362;-72
2023/12/12 10:06:02;;;;;;;;;;;;;;;3.72;77.42;100685.76;106539;1267;107679;-71
2023/12/12 10:08:30;;;;;;;;;;;;;;;3.83;77.57;100683.48;106596;1268;97929;-67
2023/12/12 10:10:59;;;;;;;;;;;;;;;3.95;77.56;100676.36;106627;1267;97884;-66
2023/12/12 10:13:27;;;;;;;;;;;;;;;3.97;76.65;100675.36;106570;1271;111878;-67
2023/12/12 10:16:10;;;;;;;;;;;;;;;3.98;76.66;100673.52;106044;1270;679572;-67
2023/12/12 10:18:38;;;;;;;;;;;;;;;3.97;76.30;100670.73;106617;1267;107870;-68
2023/12/12 10:21:20;;;;;;;;;;;;;;;4.05;76.73;100668.98;106564;1271;97849;-69
2023/12/12 10:23:52;;;;;;;;;;;;;;;4.19;76.74;100672.04;106551;1271;97889;-68
2023/12/12 10:26:31;;;;;;;;;;;;;;;4.32;76.84;100677.10;106517;1272;112176;-69
2023/12/12 10:29:00;;;;;;;;;;;;;;;4.43;76.70;100681.14;106519;1269;109170;-68
2023/12/12 10:31:29;;;;;;;;;;;;;;;4.50;76.69;100681.95;106520;1269;108125;-68
2023/12/12 10:33:58;;;;;;;;;;;;;;;4.57;76.41;100686.16;106519;1270;98430;-69
2023/12/12 10:36:28;;;;;;;;;;;;;;;4.57;76.26;100669.22;106555;1267;97870;-66
2023/12/12 10:39:10;;;;;;;;;;;;;;;4.53;75.84;100668.77;106581;1267;112206;-67
2023/12/12 10:41:38;;;;;;;;;;;;;;;4.49;75.47;100674.90;106578;1271;109032;-66
2023/12/12 10:44:08;;;;;;;;;;;;;;;4.45;75.14;100663.08;106504;1271;106907;-67
2023/12/12 10:46:38;;;;;;;;;;;;;;;4.37;74.67;100660.20;106523;1272;97888;-67
2023/12/12 10:49:07;;;;;;;;;;;;;;;4.35;74.98;100656.79;106434;1270;96719;-67
2023/12/12 10:51:36;;;;;;;;;;;;;;;4.32;74.91;100659.82;106439;1274;111206;-66
2023/12/12 10:54:05;;;;;;;;;;;;;;;4.28;74.63;100662.59;106504;1272;109195;-64
2023/12/12 10:56:35;;;;;;;;;;;;;;;4.17;74.13;100668.07;106514;1267;107777;-68
2023/12/12 10:59:05;;;;;;;;;;;;;;;4.04;74.56;100678.85;106564;1268;97852;-68
2023/12/12 11:01:53;;;;;;;;;;;;;;;3.95;74.85;100679.92;106569;1267;97862;-68
2023/12/12 11:04:24;;;;;;;;;;;;;;;3.88;75.02;100681.77;106472;1273;111818;-69
2023/12/12 11:06:53;;;;;;;;;;;;;;;3.82;75.22;100673.77;106538;1268;109058;-69
2023/12/12 11:09:21;;;;;;;;;;;;;;;3.81;75.23;100670.85;106517;1268;107372;-68
2023/12/12 11:11:50;;;;;;;;;;;;;;;3.76;75.25;100666.52;106503;1267;97939;-65
2023/12/12 11:14:22;;;;;;;;;;;;;;;3.74;75.45;100667.35;106521;1269;97879;-69
2023/12/12 11:16:51;;;;;;;;;;;;;;;3.72;75.22;100664.96;106542;1267;110765;-68
2023/12/12 11:19:19;;;;;;;;;;;;;;;3.71;75.43;100664.89;106586;1271;109267;-67
2023/12/12 11:21:48;;;;;;;;;;;;;;;3.69;75.49;100665.01;106569;1272;108024;-69
2023/12/12 11:24:18;;;;;;;;;;;;;;;3.69;75.53;100667.50;106513;1269;98555;-68
2023/12/12 11:26:47;;;;;;;;;;;;;;;3.60;75.41;100675.31;106566;1267;97884;-68
2023/12/12 11:29:17;;;;;;;;;;;;;;;3.54;75.56;100666.08;106556;1272;110881;-67
2023/12/12 11:32:01;;;;;;;;;;;;;;;3.50;75.61;100668.27;106446;1272;109506;-69
2023/12/12 11:34:36;;;;;;;;;;;;;;;3.50;76.03;100667.58;106526;1267;107764;-68
2023/12/12 11:37:06;;;;;;;;;;;;;;;3.53;76.13;100662.64;106571;1271;97940;-69
2023/12/12 11:39:37;;;;;;;;;;;;;;;3.54;76.18;100663.96;106587;1271;97777;-68
2023/12/12 11:42:15;;;;;;;;;;;;;;;3.56;76.38;100665.81;106535;1268;111159;-68
2023/12/12 11:44:55;;;;;;;;;;;;;;;3.56;76.29;100672.53;106517;1273;109427;-69
2023/12/12 11:47:24;;;;;;;;;;;;;;;3.53;76.30;100676.84;106452;1268;107276;-67
2023/12/12 11:50:16;;;;;;;;;;;;;;;3.49;76.21;100674.71;106417;1269;97885;-66
2023/12/12 11:52:45;;;;;;;;;;;;;;;3.40;76.06;100672.41;106459;1273;97877;-66
2023/12/12 11:55:21;;;;;;;;;;;;;;;3.35;76.21;100682.48;106558;1271;112266;-67
2023/12/12 11:57:49;;;;;;;;;;;;;;;3.33;76.50;100689.51;106482;1272;108985;-69
2023/12/12 12:00:20;;;;;;;;;;;;;;;3.34;76.49;100686.27;106441;1272;107990;-69
2023/12/12 12:02:49;;;;;;;;;;;;;;;3.31;76.74;100692.97;106550;1267;97861;-69
2023/12/12 12:05:17;;;;;;;;;;;;;;;3.32;77.11;100694.71;106525;1270;97887;-70
2023/12/12 12:07:46;;;;;;;;;;;;;;;3.40;77.61;100690.35;106392;1267;111277;-68
2023/12/12 12:10:14;;;;;;;;;;;;;;;3.49;78.02;100693.89;106570;1272;108999;-68
2023/12/12 12:12:56;;;;;;;;;;;;;;;3.54;77.19;100688.99;106498;1273;108328;-66
2023/12/12 12:15:25;;;;;;;;;;;;;;;3.55;77.45;100687.14;106571;1270;97842;-68
2023/12/12 12:17:54;;;;;;;;;;;;;;;3.60;77.71;100698.53;106573;1267;97941;-66
2023/12/12 12:20:22;;;;;;;;;;;;;;;3.68;77.92;100702.34;106562;1267;111600;-65
2023/12/12 12:22:51;;;;;;;;;;;;;;;3.72;77.83;100703.82;106541;1267;110278;-65
2023/12/12 12:25:26;;;;;;;;;;;;;;;3.77;77.62;100707.80;106540;1270;108296;-66
2023/12/12 12:27:55;;;;;;;;;;;;;;;3.82;77.83;100704.29;106525;1267;97840;-66
2023/12/12 12:30:25;;;;;;;;;;;;;;;3.89;77.65;100707.61;106506;1270;97877;-65
2023/12/12 12:32:58;;;;;;;;;;;;;;;4.00;77.67;100710.14;106517;1267;111893;-66
2023/12/12 12:35:27;;;;;;;;;;;;;;;4.04;77.59;100711.98;106570;1267;108355;-67